sensor_id;sensor_type;location;lat;lon;timestamp;temperature;humidity
11489;DHT22;5801;50.804;12.638;2022-11-25T00:03:12;4.00;99.90
11489;DHT22;5801;50.804;12.638;2022-11-25T00:08:04;3.80;99.90
11489;DHT22;5801;50.804;12.638;2022-11-25T00:15:21;3.60;1.00
11489;DHT22;5801;50.804;12.638;2022-11-25T00:25:05;3.50;99.90
11489;DHT22;5801;50.804;12.638;2022-11-25T00:27:31;3.40;1.00
11489;DHT22;5801;50.804;12.638;2022-11-25T00:29:56;3.40;99.90
11489;DHT22;5801;50.804;12.638;2022-11-25T00:32:22;3.50;99.90
11489;DHT22;5801;50.804;12.638;2022-11-25T00:34:47;2.90;1.00
11489;DHT22;5801;50.804;12.638;2022-11-25T00:47:17;3.80;1.00
11489;DHT22;5801;50.804;12.638;2022-11-25T00:49:45;3.60;1.00
11489;DHT22;5801;50.804;12.638;2022-11-25T00:52:19;3.70;99.90
11489;DHT22;5801;50.804;12.638;2022-11-25T00:54:46;3.70;1.00
11489;DHT22;5801;50.804;12.638;2022-11-25T00:57:16;3.60;1.00
11489;DHT22;5801;50.804;12.638;2022-11-25T01:02:10;3.60;1.00
11489;DHT22;5801;50.804;12.638;2022-11-25T01:07:01;4.00;1.00
11489;DHT22;5801;50.804;12.638;2022-11-25T01:14:20;3.60;1.00
11489;DHT22;5801;50.804;12.638;2022-11-25T01:16:46;3.40;99.90
11489;DHT22;5801;50.804;12.638;2022-11-25T01:21:38;3.50;1.00
11489;DHT22;5801;50.804;12.638;2022-11-25T01:24:05;3.40;1.00
11489;DHT22;5801;50.804;12.638;2022-11-25T01:26:32;3.40;1.00
11489;DHT22;5801;50.804;12.638;2022-11-25T01:29:03;3.50;99.90
11489;DHT22;5801;50.804;12.638;2022-11-25T01:31:32;3.30;1.00
11489;DHT22;5801;50.804;12.638;2022-11-25T01:34:09;3.20;1.00
11489;DHT22;5801;50.804;12.638;2022-11-25T01:36:36;3.40;99.90
11489;DHT22;5801;50.804;12.638;2022-11-25T01:41:30;3.00;99.90
11489;DHT22;5801;50.804;12.638;2022-11-25T01:44:17;2.90;99.90
11489;DHT22;5801;50.804;12.638;2022-11-25T01:49:57;2.90;1.00
11489;DHT22;5801;50.804;12.638;2022-11-25T01:52:35;2.80;1.00
11489;DHT22;5801;50.804;12.638;2022-11-25T01:57:39;2.70;99.90
11489;DHT22;5801;50.804;12.638;2022-11-25T02:00:06;2.70;1.00
11489;DHT22;5801;50.804;12.638;2022-11-25T02:05:00;2.50;99.90
11489;DHT22;5801;50.804;12.638;2022-11-25T02:07:35;2.50;99.90
11489;DHT22;5801;50.804;12.638;2022-11-25T02:10:05;2.40;99.90
11489;DHT22;5801;50.804;12.638;2022-11-25T02:12:36;2.50;1.00
11489;DHT22;5801;50.804;12.638;2022-11-25T02:15:03;2.40;99.90
11489;DHT22;5801;50.804;12.638;2022-11-25T02:17:29;2.20;1.00
11489;DHT22;5801;50.804;12.638;2022-11-25T02:20:11;2.30;1.00
11489;DHT22;5801;50.804;12.638;2022-11-25T02:25:16;2.10;99.90
11489;DHT22;5801;50.804;12.638;2022-11-25T02:27:43;2.20;1.00
11489;DHT22;5801;50.804;12.638;2022-11-25T02:30:10;1.90;99.90
11489;DHT22;5801;50.804;12.638;2022-11-25T02:32:35;2.00;1.00
11489;DHT22;5801;50.804;12.638;2022-11-25T02:37:27;1.70;1.00
11489;DHT22;5801;50.804;12.638;2022-11-25T02:39:53;1.60;1.00
11489;DHT22;5801;50.804;12.638;2022-11-25T02:42:20;1.70;99.90
11489;DHT22;5801;50.804;12.638;2022-11-25T02:44:47;2.00;1.00
11489;DHT22;5801;50.804;12.638;2022-11-25T02:49:39;1.60;99.90
11489;DHT22;5801;50.804;12.638;2022-11-25T02:54:31;2.00;1.00
11489;DHT22;5801;50.804;12.638;2022-11-25T02:56:56;1.80;1.00
11489;DHT22;5801;50.804;12.638;2022-11-25T02:59:22;1.70;99.90
11489;DHT22;5801;50.804;12.638;2022-11-25T03:06:39;1.80;99.90
11489;DHT22;5801;50.804;12.638;2022-11-25T03:09:05;1.70;1.00
11489;DHT22;5801;50.804;12.638;2022-11-25T03:16:41;1.90;1.00
11489;DHT22;5801;50.804;12.638;2022-11-25T03:21:32;1.80;1.00
11489;DHT22;5801;50.804;12.638;2022-11-25T03:23:58;2.00;99.90
11489;DHT22;5801;50.804;12.638;2022-11-25T03:26:24;2.00;99.90
11489;DHT22;5801;50.804;12.638;2022-11-25T03:33:42;1.60;1.00
11489;DHT22;5801;50.804;12.638;2022-11-25T03:38:33;1.60;1.00
11489;DHT22;5801;50.804;12.638;2022-11-25T03:40:59;1.70;99.90
11489;DHT22;5801;50.804;12.638;2022-11-25T03:43:24;1.30;1.00
11489;DHT22;5801;50.804;12.638;2022-11-25T03:48:16;1.60;1.00
11489;DHT22;5801;50.804;12.638;2022-11-25T03:55:33;1.50;99.90
11489;DHT22;5801;50.804;12.638;2022-11-25T04:05:17;1.40;1.00
11489;DHT22;5801;50.804;12.638;2022-11-25T04:07:42;1.30;1.00
11489;DHT22;5801;50.804;12.638;2022-11-25T04:10:08;1.00;99.90
11489;DHT22;5801;50.804;12.638;2022-11-25T04:15:16;1.30;99.90
11489;DHT22;5801;50.804;12.638;2022-11-25T04:20:11;1.20;99.90
11489;DHT22;5801;50.804;12.638;2022-11-25T04:32:20;1.10;43.80
11489;DHT22;5801;50.804;12.638;2022-11-25T04:37:12;1.10;32.30
11489;DHT22;5801;50.804;12.638;2022-11-25T04:44:48;1.00;1.00
11489;DHT22;5801;50.804;12.638;2022-11-25T04:49:39;0.80;64.00
11489;DHT22;5801;50.804;12.638;2022-11-25T04:52:05;1.00;96.60
11489;DHT22;5801;50.804;12.638;2022-11-25T04:54:30;0.80;1.00
11489;DHT22;5801;50.804;12.638;2022-11-25T04:56:56;0.80;16.80
11489;DHT22;5801;50.804;12.638;2022-11-25T04:59:21;0.90;64.10
11489;DHT22;5801;50.804;12.638;2022-11-25T05:02:25;0.90;1.00
11489;DHT22;5801;50.804;12.638;2022-11-25T05:04:54;0.90;1.00
11489;DHT22;5801;50.804;12.638;2022-11-25T05:07:22;0.90;1.00
11489;DHT22;5801;50.804;12.638;2022-11-25T05:09:48;1.10;39.40
11489;DHT22;5801;50.804;12.638;2022-11-25T05:12:16;0.90;1.00
11489;DHT22;5801;50.804;12.638;2022-11-25T05:14:42;0.90;1.00
11489;DHT22;5801;50.804;12.638;2022-11-25T05:17:13;0.60;1.00
11489;DHT22;5801;50.804;12.638;2022-11-25T05:19:38;0.80;1.00
11489;DHT22;5801;50.804;12.638;2022-11-25T05:26:56;0.60;1.00
11489;DHT22;5801;50.804;12.638;2022-11-25T05:31:47;0.70;1.00
11489;DHT22;5801;50.804;12.638;2022-11-25T05:34:13;0.90;1.00
11489;DHT22;5801;50.804;12.638;2022-11-25T05:41:30;0.80;1.00
11489;DHT22;5801;50.804;12.638;2022-11-25T05:43:56;0.70;1.00
11489;DHT22;5801;50.804;12.638;2022-11-25T05:53:39;0.60;99.90
11489;DHT22;5801;50.804;12.638;2022-11-25T05:56:05;0.40;99.90
11489;DHT22;5801;50.804;12.638;2022-11-25T05:58:32;0.50;99.30
11489;DHT22;5801;50.804;12.638;2022-11-25T06:00:57;0.50;99.90
11489;DHT22;5801;50.804;12.638;2022-11-25T06:03:28;0.50;99.90
11489;DHT22;5801;50.804;12.638;2022-11-25T06:05:57;0.50;1.00
11489;DHT22;5801;50.804;12.638;2022-11-25T06:13:14;0.60;1.00
11489;DHT22;5801;50.804;12.638;2022-11-25T06:15:41;0.50;99.90
11489;DHT22;5801;50.804;12.638;2022-11-25T06:18:08;0.50;43.20
11489;DHT22;5801;50.804;12.638;2022-11-25T06:20:34;0.40;75.70
11489;DHT22;5801;50.804;12.638;2022-11-25T06:27:51;0.30;99.90
11489;DHT22;5801;50.804;12.638;2022-11-25T06:30:17;0.50;99.90
11489;DHT22;5801;50.804;12.638;2022-11-25T06:35:09;0.10;99.90
11489;DHT22;5801;50.804;12.638;2022-11-25T06:42:27;0.80;48.90
11489;DHT22;5801;50.804;12.638;2022-11-25T06:47:18;0.20;1.00
11489;DHT22;5801;50.804;12.638;2022-11-25T06:49:44;0.40;1.00
11489;DHT22;5801;50.804;12.638;2022-11-25T06:52:10;0.60;1.00
11489;DHT22;5801;50.804;12.638;2022-11-25T06:57:11;0.40;1.00
11489;DHT22;5801;50.804;12.638;2022-11-25T07:02:10;0.50;97.80
11489;DHT22;5801;50.804;12.638;2022-11-25T07:11:54;0.80;99.90
11489;DHT22;5801;50.804;12.638;2022-11-25T07:14:19;0.30;99.50
11489;DHT22;5801;50.804;12.638;2022-11-25T07:16:45;0.30;1.00
11489;DHT22;5801;50.804;12.638;2022-11-25T07:19:13;0.60;1.00
11489;DHT22;5801;50.804;12.638;2022-11-25T07:21:40;0.50;1.90
11489;DHT22;5801;50.804;12.638;2022-11-25T07:24:06;0.50;1.00
11489;DHT22;5801;50.804;12.638;2022-11-25T07:26:36;0.80;1.00
11489;DHT22;5801;50.804;12.638;2022-11-25T07:29:07;0.90;99.90
11489;DHT22;5801;50.804;12.638;2022-11-25T07:31:35;1.40;1.00
11489;DHT22;5801;50.804;12.638;2022-11-25T07:34:12;1.00;99.90
11489;DHT22;5801;50.804;12.638;2022-11-25T07:36:39;1.40;1.00
11489;DHT22;5801;50.804;12.638;2022-11-25T07:39:09;1.30;1.00
11489;DHT22;5801;50.804;12.638;2022-11-25T07:41:35;1.40;1.00
11489;DHT22;5801;50.804;12.638;2022-11-25T07:44:03;1.90;1.00
11489;DHT22;5801;50.804;12.638;2022-11-25T07:46:36;2.10;99.90
11489;DHT22;5801;50.804;12.638;2022-11-25T07:49:08;2.50;99.90
11489;DHT22;5801;50.804;12.638;2022-11-25T07:51:35;2.90;99.90
11489;DHT22;5801;50.804;12.638;2022-11-25T07:54:05;3.10;99.90
11489;DHT22;5801;50.804;12.638;2022-11-25T07:56:33;3.40;5.10
11489;DHT22;5801;50.804;12.638;2022-11-25T08:03:52;4.10;99.90
11489;DHT22;5801;50.804;12.638;2022-11-25T08:06:20;4.30;1.00
11489;DHT22;5801;50.804;12.638;2022-11-25T08:08:45;4.80;1.00
11489;DHT22;5801;50.804;12.638;2022-11-25T08:11:17;5.40;1.00
11489;DHT22;5801;50.804;12.638;2022-11-25T08:13:43;6.00;1.00
11489;DHT22;5801;50.804;12.638;2022-11-25T08:16:10;6.70;99.90
11489;DHT22;5801;50.804;12.638;2022-11-25T08:21:07;8.10;99.90
11489;DHT22;5801;50.804;12.638;2022-11-25T08:23:35;8.50;1.00
11489;DHT22;5801;50.804;12.638;2022-11-25T08:26:06;8.90;68.00
11489;DHT22;5801;50.804;12.638;2022-11-25T08:28:32;9.40;99.90
11489;DHT22;5801;50.804;12.638;2022-11-25T08:31:05;9.60;99.90
11489;DHT22;5801;50.804;12.638;2022-11-25T08:33:31;10.50;37.50
11489;DHT22;5801;50.804;12.638;2022-11-25T08:35:57;10.30;99.90
11489;DHT22;5801;50.804;12.638;2022-11-25T08:38:22;10.40;99.90
11489;DHT22;5801;50.804;12.638;2022-11-25T08:40:48;10.40;99.90
11489;DHT22;5801;50.804;12.638;2022-11-25T08:48:06;10.00;99.90
11489;DHT22;5801;50.804;12.638;2022-11-25T08:50:32;10.20;99.90
11489;DHT22;5801;50.804;12.638;2022-11-25T08:57:52;11.00;99.90
11489;DHT22;5801;50.804;12.638;2022-11-25T09:00:18;11.80;99.90
11489;DHT22;5801;50.804;12.638;2022-11-25T09:02:44;11.30;99.90
11489;DHT22;5801;50.804;12.638;2022-11-25T09:05:11;10.70;17.30
11489;DHT22;5801;50.804;12.638;2022-11-25T09:10:04;10.80;99.90
11489;DHT22;5801;50.804;12.638;2022-11-25T09:19:48;12.10;99.90
11489;DHT22;5801;50.804;12.638;2022-11-25T09:22:13;11.60;99.90
11489;DHT22;5801;50.804;12.638;2022-11-25T09:24:39;12.20;99.90
11489;DHT22;5801;50.804;12.638;2022-11-25T09:27:06;12.80;99.90
11489;DHT22;5801;50.804;12.638;2022-11-25T09:29:31;13.40;94.10
11489;DHT22;5801;50.804;12.638;2022-11-25T09:39:15;13.00;99.90
11489;DHT22;5801;50.804;12.638;2022-11-25T09:45:20;13.10;1.00
11489;DHT22;5801;50.804;12.638;2022-11-25T09:51:23;13.40;1.00
11489;DHT22;5801;50.804;12.638;2022-11-25T09:59:38;12.90;99.90
11489;DHT22;5801;50.804;12.638;2022-11-25T10:02:10;12.20;99.90
11489;DHT22;5801;50.804;12.638;2022-11-25T10:04:42;11.20;99.90
11489;DHT22;5801;50.804;12.638;2022-11-25T10:07:17;10.20;11.70
11489;DHT22;5801;50.804;12.638;2022-11-25T10:14:47;11.20;7.10
11489;DHT22;5801;50.804;12.638;2022-11-25T10:20:27;9.80;99.90
11489;DHT22;5801;50.804;12.638;2022-11-25T10:22:56;9.30;41.20
11489;DHT22;5801;50.804;12.638;2022-11-25T10:25:27;9.00;36.00
11489;DHT22;5801;50.804;12.638;2022-11-25T10:31:00;9.80;35.60
11489;DHT22;5801;50.804;12.638;2022-11-25T10:33:54;10.60;99.90
11489;DHT22;5801;50.804;12.638;2022-11-25T10:36:26;11.10;99.90
11489;DHT22;5801;50.804;12.638;2022-11-25T10:39:02;10.80;17.40
11489;DHT22;5801;50.804;12.638;2022-11-25T10:41:37;10.80;99.90
11489;DHT22;5801;50.804;12.638;2022-11-25T10:44:31;11.10;17.50
11489;DHT22;5801;50.804;12.638;2022-11-25T10:49:59;11.20;14.80
11489;DHT22;5801;50.804;12.638;2022-11-25T10:52:29;11.40;14.10
11489;DHT22;5801;50.804;12.638;2022-11-25T10:57:32;11.60;99.90
11489;DHT22;5801;50.804;12.638;2022-11-25T10:59:59;11.60;11.30
11489;DHT22;5801;50.804;12.638;2022-11-25T11:02:43;11.30;13.20
11489;DHT22;5801;50.804;12.638;2022-11-25T11:07:40;11.10;16.10
11489;DHT22;5801;50.804;12.638;2022-11-25T11:10:24;10.90;99.90
11489;DHT22;5801;50.804;12.638;2022-11-25T11:13:05;10.90;14.80
11489;DHT22;5801;50.804;12.638;2022-11-25T11:15:49;10.70;16.90
11489;DHT22;5801;50.804;12.638;2022-11-25T11:21:04;9.90;99.90
11489;DHT22;5801;50.804;12.638;2022-11-25T11:23:30;10.00;99.90
11489;DHT22;5801;50.804;12.638;2022-11-25T11:25:59;10.20;27.80
11489;DHT22;5801;50.804;12.638;2022-11-25T11:31:17;9.60;30.00
11489;DHT22;5801;50.804;12.638;2022-11-25T11:49:33;9.60;27.20
11489;DHT22;5801;50.804;12.638;2022-11-25T11:52:29;10.10;24.60
11489;DHT22;5801;50.804;12.638;2022-11-25T12:00:19;9.30;99.90
11489;DHT22;5801;50.804;12.638;2022-11-25T12:02:58;9.60;99.90
11489;DHT22;5801;50.804;12.638;2022-11-25T12:05:32;9.40;24.00
11489;DHT22;5801;50.804;12.638;2022-11-25T12:11:24;9.20;24.80
11489;DHT22;5801;50.804;12.638;2022-11-25T12:14:20;9.30;99.90
11489;DHT22;5801;50.804;12.638;2022-11-25T12:16:56;9.30;99.90
11489;DHT22;5801;50.804;12.638;2022-11-25T12:19:29;9.40;99.90
11489;DHT22;5801;50.804;12.638;2022-11-25T12:22:02;9.20;26.00
11489;DHT22;5801;50.804;12.638;2022-11-25T12:24:43;9.00;99.90
11489;DHT22;5801;50.804;12.638;2022-11-25T12:29:44;9.00;99.90
11489;DHT22;5801;50.804;12.638;2022-11-25T12:34:43;9.00;28.90
11489;DHT22;5801;50.804;12.638;2022-11-25T12:37:16;8.80;99.90
11489;DHT22;5801;50.804;12.638;2022-11-25T12:39:56;8.90;99.90
11489;DHT22;5801;50.804;12.638;2022-11-25T12:49:47;8.70;31.90
11489;DHT22;5801;50.804;12.638;2022-11-25T12:52:29;8.60;33.50
11489;DHT22;5801;50.804;12.638;2022-11-25T12:55:18;8.70;1.00
11489;DHT22;5801;50.804;12.638;2022-11-25T12:58:16;8.60;1.00
11489;DHT22;5801;50.804;12.638;2022-11-25T13:06:48;8.50;41.50
11489;DHT22;5801;50.804;12.638;2022-11-25T13:17:35;8.50;45.10
11489;DHT22;5801;50.804;12.638;2022-11-25T13:25:30;8.60;99.90
11489;DHT22;5801;50.804;12.638;2022-11-25T13:27:58;8.60;46.40
11489;DHT22;5801;50.804;12.638;2022-11-25T13:35:55;8.50;46.30
11489;DHT22;5801;50.804;12.638;2022-11-25T13:38:33;8.70;1.00
11489;DHT22;5801;50.804;12.638;2022-11-25T13:41:02;8.60;1.00
11489;DHT22;5801;50.804;12.638;2022-11-25T13:45:54;8.70;50.90
11489;DHT22;5801;50.804;12.638;2022-11-25T13:48:28;8.70;45.70
11489;DHT22;5801;50.804;12.638;2022-11-25T13:51:20;8.80;99.90
11489;DHT22;5801;50.804;12.638;2022-11-25T13:54:02;8.60;47.70
11489;DHT22;5801;50.804;12.638;2022-11-25T13:56:31;8.50;50.30
11489;DHT22;5801;50.804;12.638;2022-11-25T14:01:41;8.30;1.00
11489;DHT22;5801;50.804;12.638;2022-11-25T14:04:19;8.20;99.90
11489;DHT22;5801;50.804;12.638;2022-11-25T14:15:29;8.50;59.10
11489;DHT22;5801;50.804;12.638;2022-11-25T14:20:59;8.80;1.00
11489;DHT22;5801;50.804;12.638;2022-11-25T14:23:48;8.40;56.00
11489;DHT22;5801;50.804;12.638;2022-11-25T14:26:29;8.40;99.90
11489;DHT22;5801;50.804;12.638;2022-11-25T14:29:21;8.20;99.90
11489;DHT22;5801;50.804;12.638;2022-11-25T14:31:54;8.10;1.00
11489;DHT22;5801;50.804;12.638;2022-11-25T14:34:33;8.30;58.20
11489;DHT22;5801;50.804;12.638;2022-11-25T14:37:16;8.10;90.90
11489;DHT22;5801;50.804;12.638;2022-11-25T14:39:55;8.20;58.10
11489;DHT22;5801;50.804;12.638;2022-11-25T14:42:26;8.10;99.90
11489;DHT22;5801;50.804;12.638;2022-11-25T14:44:56;8.00;99.90
11489;DHT22;5801;50.804;12.638;2022-11-25T14:47:27;8.20;90.70
11489;DHT22;5801;50.804;12.638;2022-11-25T14:49:54;8.10;65.10
11489;DHT22;5801;50.804;12.638;2022-11-25T14:52:22;7.70;99.90
11489;DHT22;5801;50.804;12.638;2022-11-25T14:54:49;8.30;99.90
11489;DHT22;5801;50.804;12.638;2022-11-25T14:57:21;8.00;69.50
11489;DHT22;5801;50.804;12.638;2022-11-25T14:59:48;7.80;99.90
11489;DHT22;5801;50.804;12.638;2022-11-25T15:02:30;7.90;1.00
11489;DHT22;5801;50.804;12.638;2022-11-25T15:05:19;7.50;1.00
11489;DHT22;5801;50.804;12.638;2022-11-25T15:07:59;7.80;80.70
11489;DHT22;5801;50.804;12.638;2022-11-25T15:10:48;8.70;99.90
11489;DHT22;5801;50.804;12.638;2022-11-25T15:13:37;7.90;1.00
11489;DHT22;5801;50.804;12.638;2022-11-25T15:16:18;7.70;92.20
11489;DHT22;5801;50.804;12.638;2022-11-25T15:18:55;7.70;1.00
11489;DHT22;5801;50.804;12.638;2022-11-25T15:21:42;7.60;93.50
11489;DHT22;5801;50.804;12.638;2022-11-25T15:24:24;7.60;92.70
11489;DHT22;5801;50.804;12.638;2022-11-25T15:26:52;7.50;99.90
11489;DHT22;5801;50.804;12.638;2022-11-25T15:31:45;7.50;96.50
11489;DHT22;5801;50.804;12.638;2022-11-25T15:34:13;7.60;1.00
11489;DHT22;5801;50.804;12.638;2022-11-25T15:39:14;7.40;1.00
11489;DHT22;5801;50.804;12.638;2022-11-25T15:41:42;7.50;99.90
11489;DHT22;5801;50.804;12.638;2022-11-25T15:44:26;7.40;99.90
11489;DHT22;5801;50.804;12.638;2022-11-25T15:46:59;7.00;1.00
11489;DHT22;5801;50.804;12.638;2022-11-25T15:49:26;7.10;1.00
11489;DHT22;5801;50.804;12.638;2022-11-25T15:51:56;6.90;99.90
11489;DHT22;5801;50.804;12.638;2022-11-25T15:54:32;7.00;99.90
11489;DHT22;5801;50.804;12.638;2022-11-25T15:57:33;7.00;99.90
11489;DHT22;5801;50.804;12.638;2022-11-25T16:10:25;6.80;99.90
11489;DHT22;5801;50.804;12.638;2022-11-25T16:15:58;6.70;99.90
11489;DHT22;5801;50.804;12.638;2022-11-25T16:20:58;7.20;99.90
11489;DHT22;5801;50.804;12.638;2022-11-25T16:26:00;6.50;1.00
11489;DHT22;5801;50.804;12.638;2022-11-25T16:28:26;6.70;16.70
11489;DHT22;5801;50.804;12.638;2022-11-25T16:35:44;6.50;99.90
11489;DHT22;5801;50.804;12.638;2022-11-25T16:38:10;6.40;1.00
11489;DHT22;5801;50.804;12.638;2022-11-25T16:40:37;6.30;99.90
11489;DHT22;5801;50.804;12.638;2022-11-25T16:43:13;6.40;99.90
11489;DHT22;5801;50.804;12.638;2022-11-25T16:45:40;6.50;1.00
11489;DHT22;5801;50.804;12.638;2022-11-25T16:48:16;6.40;99.90
11489;DHT22;5801;50.804;12.638;2022-11-25T16:55:35;6.40;1.00
11489;DHT22;5801;50.804;12.638;2022-11-25T16:58:12;5.70;99.90
11489;DHT22;5801;50.804;12.638;2022-11-25T17:00:47;6.30;1.00
11489;DHT22;5801;50.804;12.638;2022-11-25T17:15:31;6.40;1.00
11489;DHT22;5801;50.804;12.638;2022-11-25T17:17:57;6.50;15.80
11489;DHT22;5801;50.804;12.638;2022-11-25T17:20:23;6.10;99.90
11489;DHT22;5801;50.804;12.638;2022-11-25T17:22:50;6.40;1.00
11489;DHT22;5801;50.804;12.638;2022-11-25T17:25:16;6.30;99.90
11489;DHT22;5801;50.804;12.638;2022-11-25T17:27:43;6.40;1.00
11489;DHT22;5801;50.804;12.638;2022-11-25T17:30:23;6.30;99.90
11489;DHT22;5801;50.804;12.638;2022-11-25T17:32:57;6.50;72.20
11489;DHT22;5801;50.804;12.638;2022-11-25T17:35:24;6.50;1.00
11489;DHT22;5801;50.804;12.638;2022-11-25T17:42:42;6.40;99.90
11489;DHT22;5801;50.804;12.638;2022-11-25T17:45:17;6.40;99.90
11489;DHT22;5801;50.804;12.638;2022-11-25T17:47:44;6.40;99.90
11489;DHT22;5801;50.804;12.638;2022-11-25T17:55:08;6.30;1.00
11489;DHT22;5801;50.804;12.638;2022-11-25T17:57:34;6.30;1.00
11489;DHT22;5801;50.804;12.638;2022-11-25T18:00:00;6.30;1.00
11489;DHT22;5801;50.804;12.638;2022-11-25T18:02:25;6.20;1.00
11489;DHT22;5801;50.804;12.638;2022-11-25T18:12:22;6.30;96.60
11489;DHT22;5801;50.804;12.638;2022-11-25T18:14:49;6.30;99.90
11489;DHT22;5801;50.804;12.638;2022-11-25T18:17:16;6.30;99.90
11489;DHT22;5801;50.804;12.638;2022-11-25T18:19:43;6.00;1.00
11489;DHT22;5801;50.804;12.638;2022-11-25T18:22:13;6.50;70.70
11489;DHT22;5801;50.804;12.638;2022-11-25T18:27:06;6.50;99.90
11489;DHT22;5801;50.804;12.638;2022-11-25T18:31:58;6.30;99.90
11489;DHT22;5801;50.804;12.638;2022-11-25T18:34:24;6.40;99.90
11489;DHT22;5801;50.804;12.638;2022-11-25T18:36:51;6.40;1.00
11489;DHT22;5801;50.804;12.638;2022-11-25T18:39:17;6.50;1.00
11489;DHT22;5801;50.804;12.638;2022-11-25T18:41:46;6.40;1.00
11489;DHT22;5801;50.804;12.638;2022-11-25T18:44:21;6.30;1.00
11489;DHT22;5801;50.804;12.638;2022-11-25T18:49:14;6.50;1.00
11489;DHT22;5801;50.804;12.638;2022-11-25T18:51:41;6.30;1.00
11489;DHT22;5801;50.804;12.638;2022-11-25T18:54:07;6.10;1.00
11489;DHT22;5801;50.804;12.638;2022-11-25T18:56:34;6.30;99.90
11489;DHT22;5801;50.804;12.638;2022-11-25T18:59:01;7.20;99.90
11489;DHT22;5801;50.804;12.638;2022-11-25T19:06:20;6.40;99.90
11489;DHT22;5801;50.804;12.638;2022-11-25T19:11:26;6.10;99.90
11489;DHT22;5801;50.804;12.638;2022-11-25T19:13:54;6.10;1.00
11489;DHT22;5801;50.804;12.638;2022-11-25T19:21:17;6.20;1.00
11489;DHT22;5801;50.804;12.638;2022-11-25T19:23:44;6.00;99.90
11489;DHT22;5801;50.804;12.638;2022-11-25T19:26:13;6.00;1.00
11489;DHT22;5801;50.804;12.638;2022-11-25T19:28:40;6.10;1.00
11489;DHT22;5801;50.804;12.638;2022-11-25T19:33:34;6.10;1.00
11489;DHT22;5801;50.804;12.638;2022-11-25T19:36:01;5.90;29.60
11489;DHT22;5801;50.804;12.638;2022-11-25T19:40:54;6.10;1.00
11489;DHT22;5801;50.804;12.638;2022-11-25T19:43:21;6.00;99.90
11489;DHT22;5801;50.804;12.638;2022-11-25T19:45:50;6.10;1.00
11489;DHT22;5801;50.804;12.638;2022-11-25T19:48:17;6.20;1.00
11489;DHT22;5801;50.804;12.638;2022-11-25T19:50:46;6.10;1.00
11489;DHT22;5801;50.804;12.638;2022-11-25T19:53:18;6.10;1.00
11489;DHT22;5801;50.804;12.638;2022-11-25T20:05:32;6.20;99.90
11489;DHT22;5801;50.804;12.638;2022-11-25T20:07:58;6.00;1.00
11489;DHT22;5801;50.804;12.638;2022-11-25T20:10:26;6.20;99.90
11489;DHT22;5801;50.804;12.638;2022-11-25T20:12:53;6.20;99.90
11489;DHT22;5801;50.804;12.638;2022-11-25T20:17:48;6.00;1.00
11489;DHT22;5801;50.804;12.638;2022-11-25T20:20:22;6.10;99.90
11489;DHT22;5801;50.804;12.638;2022-11-25T20:27:41;5.80;1.00
11489;DHT22;5801;50.804;12.638;2022-11-25T20:30:19;5.90;99.90
11489;DHT22;5801;50.804;12.638;2022-11-25T20:35:11;5.90;99.90
11489;DHT22;5801;50.804;12.638;2022-11-25T20:37:37;6.00;99.90
11489;DHT22;5801;50.804;12.638;2022-11-25T20:40:23;6.10;27.10
11489;DHT22;5801;50.804;12.638;2022-11-25T20:42:50;6.10;99.90
11489;DHT22;5801;50.804;12.638;2022-11-25T20:45:20;6.10;1.00
11489;DHT22;5801;50.804;12.638;2022-11-25T20:47:47;6.20;99.90
11489;DHT22;5801;50.804;12.638;2022-11-25T20:50:18;6.10;62.30
11489;DHT22;5801;50.804;12.638;2022-11-25T20:52:44;6.00;1.00
11489;DHT22;5801;50.804;12.638;2022-11-25T20:55:23;5.90;1.00
11489;DHT22;5801;50.804;12.638;2022-11-25T20:57:50;6.00;1.00
11489;DHT22;5801;50.804;12.638;2022-11-25T21:00:21;6.10;1.00
11489;DHT22;5801;50.804;12.638;2022-11-25T21:07:39;5.70;1.00
11489;DHT22;5801;50.804;12.638;2022-11-25T21:10:31;6.00;99.90
11489;DHT22;5801;50.804;12.638;2022-11-25T21:12:59;5.80;1.00
11489;DHT22;5801;50.804;12.638;2022-11-25T21:22:54;6.00;1.00
11489;DHT22;5801;50.804;12.638;2022-11-25T21:25:22;5.90;1.00
11489;DHT22;5801;50.804;12.638;2022-11-25T21:27:49;5.70;1.00
11489;DHT22;5801;50.804;12.638;2022-11-25T21:30:19;6.00;99.90
11489;DHT22;5801;50.804;12.638;2022-11-25T21:35:12;6.00;1.00
11489;DHT22;5801;50.804;12.638;2022-11-25T21:37:38;5.70;99.90
11489;DHT22;5801;50.804;12.638;2022-11-25T21:40:06;5.90;99.90
11489;DHT22;5801;50.804;12.638;2022-11-25T21:44:58;5.90;99.90
11489;DHT22;5801;50.804;12.638;2022-11-25T21:47:26;5.80;1.00
11489;DHT22;5801;50.804;12.638;2022-11-25T21:49:53;5.70;99.90
11489;DHT22;5801;50.804;12.638;2022-11-25T21:57:21;6.00;1.00
11489;DHT22;5801;50.804;12.638;2022-11-25T21:59:50;6.20;1.00
11489;DHT22;5801;50.804;12.638;2022-11-25T22:02:21;6.10;1.00
11489;DHT22;5801;50.804;12.638;2022-11-25T22:09:39;5.70;1.00
11489;DHT22;5801;50.804;12.638;2022-11-25T22:12:06;5.90;99.90
11489;DHT22;5801;50.804;12.638;2022-11-25T22:14:42;5.80;1.00
11489;DHT22;5801;50.804;12.638;2022-11-25T22:17:16;5.80;1.00
11489;DHT22;5801;50.804;12.638;2022-11-25T22:19:43;5.80;99.90
11489;DHT22;5801;50.804;12.638;2022-11-25T22:22:13;5.80;1.00
11489;DHT22;5801;50.804;12.638;2022-11-25T22:27:05;5.80;99.90
11489;DHT22;5801;50.804;12.638;2022-11-25T22:29:35;5.70;99.90
11489;DHT22;5801;50.804;12.638;2022-11-25T22:32:02;5.70;99.90
11489;DHT22;5801;50.804;12.638;2022-11-25T22:34:27;6.20;1.00
11489;DHT22;5801;50.804;12.638;2022-11-25T22:36:53;6.10;1.00
11489;DHT22;5801;50.804;12.638;2022-11-25T22:39:21;5.90;1.00
11489;DHT22;5801;50.804;12.638;2022-11-25T22:42:05;5.70;1.00
11489;DHT22;5801;50.804;12.638;2022-11-25T22:44:36;6.90;1.00
11489;DHT22;5801;50.804;12.638;2022-11-25T22:47:03;5.70;1.00
11489;DHT22;5801;50.804;12.638;2022-11-25T22:49:38;5.70;1.00
11489;DHT22;5801;50.804;12.638;2022-11-25T22:52:07;5.60;99.90
11489;DHT22;5801;50.804;12.638;2022-11-25T22:54:34;5.40;99.90
11489;DHT22;5801;50.804;12.638;2022-11-25T23:01:52;5.20;11.60
11489;DHT22;5801;50.804;12.638;2022-11-25T23:04:18;5.30;99.90
11489;DHT22;5801;50.804;12.638;2022-11-25T23:06:45;5.20;1.00
11489;DHT22;5801;50.804;12.638;2022-11-25T23:09:14;5.20;99.90
11489;DHT22;5801;50.804;12.638;2022-11-25T23:11:39;5.30;99.90
11489;DHT22;5801;50.804;12.638;2022-11-25T23:21:24;4.70;99.90
11489;DHT22;5801;50.804;12.638;2022-11-25T23:23:54;4.80;1.00
11489;DHT22;5801;50.804;12.638;2022-11-25T23:26:19;4.80;1.00
11489;DHT22;5801;50.804;12.638;2022-11-25T23:31:15;4.70;1.00
11489;DHT22;5801;50.804;12.638;2022-11-25T23:33:45;4.70;99.90
11489;DHT22;5801;50.804;12.638;2022-11-25T23:36:14;4.80;1.00
11489;DHT22;5801;50.804;12.638;2022-11-25T23:38:44;4.70;99.90
11489;DHT22;5801;50.804;12.638;2022-11-25T23:41:14;4.80;99.90
11489;DHT22;5801;50.804;12.638;2022-11-25T23:43:42;4.70;99.90
11489;DHT22;5801;50.804;12.638;2022-11-25T23:46:09;5.20;1.00
11489;DHT22;5801;50.804;12.638;2022-11-25T23:48:37;4.60;1.00
11489;DHT22;5801;50.804;12.638;2022-11-25T23:51:05;4.80;99.90
11489;DHT22;5801;50.804;12.638;2022-11-25T23:53:32;4.80;99.90
